sensor_id;sensor_type;location;lat;lon;timestamp;P1;durP1;ratioP1;P2;durP2;ratioP2
8058;SDS011;4072;42.668;23.396;2022-10-31T00:01:21;5.50;;;4.40;;
8058;SDS011;4072;42.668;23.396;2022-10-31T00:03:51;7.83;;;4.77;;
8058;SDS011;4072;42.668;23.396;2022-10-31T00:06:22;8.00;;;4.90;;
8058;SDS011;4072;42.668;23.396;2022-10-31T00:08:53;6.80;;;4.30;;
8058;SDS011;4072;42.668;23.396;2022-10-31T00:11:23;7.20;;;3.30;;
8058;SDS011;4072;42.668;23.396;2022-10-31T00:13:51;5.43;;;3.47;;
8058;SDS011;4072;42.668;23.396;2022-10-31T00:16:20;5.73;;;3.53;;
8058;SDS011;4072;42.668;23.396;2022-10-31T00:18:49;5.67;;;4.00;;
8058;SDS011;4072;42.668;23.396;2022-10-31T00:21:19;5.10;;;3.60;;
8058;SDS011;4072;42.668;23.396;2022-10-31T00:23:47;4.63;;;3.40;;
8058;SDS011;4072;42.668;23.396;2022-10-31T00:26:18;5.33;;;3.43;;
8058;SDS011;4072;42.668;23.396;2022-10-31T00:28:47;5.67;;;3.67;;
8058;SDS011;4072;42.668;23.396;2022-10-31T00:31:15;5.53;;;4.23;;
8058;SDS011;4072;42.668;23.396;2022-10-31T00:33:44;4.13;;;3.40;;
8058;SDS011;4072;42.668;23.396;2022-10-31T00:36:13;4.77;;;3.50;;
8058;SDS011;4072;42.668;23.396;2022-10-31T00:38:44;6.83;;;3.67;;
8058;SDS011;4072;42.668;23.396;2022-10-31T00:41:14;3.57;;;3.10;;
8058;SDS011;4072;42.668;23.396;2022-10-31T00:43:46;6.93;;;3.83;;
8058;SDS011;4072;42.668;23.396;2022-10-31T00:46:14;8.00;;;5.40;;
8058;SDS011;4072;42.668;23.396;2022-10-31T00:48:43;10.77;;;7.10;;
8058;SDS011;4072;42.668;23.396;2022-10-31T00:51:11;10.43;;;7.60;;
8058;SDS011;4072;42.668;23.396;2022-10-31T00:53:39;12.73;;;7.93;;
8058;SDS011;4072;42.668;23.396;2022-10-31T00:56:08;9.83;;;7.87;;
8058;SDS011;4072;42.668;23.396;2022-10-31T00:58:36;10.50;;;6.63;;
8058;SDS011;4072;42.668;23.396;2022-10-31T01:01:06;10.93;;;7.37;;
8058;SDS011;4072;42.668;23.396;2022-10-31T01:03:35;13.20;;;8.63;;
8058;SDS011;4072;42.668;23.396;2022-10-31T01:06:07;8.77;;;6.50;;
8058;SDS011;4072;42.668;23.396;2022-10-31T01:08:36;11.50;;;7.63;;
8058;SDS011;4072;42.668;23.396;2022-10-31T01:11:06;9.83;;;7.20;;
8058;SDS011;4072;42.668;23.396;2022-10-31T01:13:38;11.23;;;7.37;;
8058;SDS011;4072;42.668;23.396;2022-10-31T01:16:09;10.87;;;8.20;;
8058;SDS011;4072;42.668;23.396;2022-10-31T01:18:39;11.03;;;7.27;;
8058;SDS011;4072;42.668;23.396;2022-10-31T01:21:08;11.00;;;7.73;;
8058;SDS011;4072;42.668;23.396;2022-10-31T01:23:39;9.60;;;7.23;;
8058;SDS011;4072;42.668;23.396;2022-10-31T01:26:08;10.83;;;6.57;;
8058;SDS011;4072;42.668;23.396;2022-10-31T01:28:43;9.67;;;5.10;;
8058;SDS011;4072;42.668;23.396;2022-10-31T01:31:16;7.47;;;5.20;;
8058;SDS011;4072;42.668;23.396;2022-10-31T01:33:45;10.27;;;6.70;;
8058;SDS011;4072;42.668;23.396;2022-10-31T01:36:14;12.60;;;6.00;;
8058;SDS011;4072;42.668;23.396;2022-10-31T01:38:45;8.50;;;6.23;;
8058;SDS011;4072;42.668;23.396;2022-10-31T01:41:15;5.50;;;4.17;;
8058;SDS011;4072;42.668;23.396;2022-10-31T01:43:48;9.60;;;7.27;;
8058;SDS011;4072;42.668;23.396;2022-10-31T01:46:20;12.47;;;6.33;;
8058;SDS011;4072;42.668;23.396;2022-10-31T01:48:51;12.63;;;7.77;;
8058;SDS011;4072;42.668;23.396;2022-10-31T01:51:23;10.73;;;7.33;;
8058;SDS011;4072;42.668;23.396;2022-10-31T01:53:58;11.00;;;6.60;;
8058;SDS011;4072;42.668;23.396;2022-10-31T01:56:32;7.07;;;5.47;;
8058;SDS011;4072;42.668;23.396;2022-10-31T01:59:07;8.03;;;6.60;;
8058;SDS011;4072;42.668;23.396;2022-10-31T02:01:40;8.73;;;6.33;;
8058;SDS011;4072;42.668;23.396;2022-10-31T02:04:08;10.03;;;6.07;;
8058;SDS011;4072;42.668;23.396;2022-10-31T02:06:37;7.77;;;6.63;;
8058;SDS011;4072;42.668;23.396;2022-10-31T02:09:11;10.27;;;7.90;;
8058;SDS011;4072;42.668;23.396;2022-10-31T02:11:41;12.83;;;7.93;;
8058;SDS011;4072;42.668;23.396;2022-10-31T02:14:11;15.10;;;7.77;;
8058;SDS011;4072;42.668;23.396;2022-10-31T02:16:42;11.50;;;6.53;;
8058;SDS011;4072;42.668;23.396;2022-10-31T02:19:11;11.17;;;6.20;;
8058;SDS011;4072;42.668;23.396;2022-10-31T02:21:47;8.27;;;6.67;;
8058;SDS011;4072;42.668;23.396;2022-10-31T02:24:27;8.83;;;4.33;;
8058;SDS011;4072;42.668;23.396;2022-10-31T02:27:21;8.63;;;5.77;;
8058;SDS011;4072;42.668;23.396;2022-10-31T02:30:11;6.97;;;4.63;;
8058;SDS011;4072;42.668;23.396;2022-10-31T02:35:44;7.67;;;5.80;;
8058;SDS011;4072;42.668;23.396;2022-10-31T02:38:24;10.83;;;6.07;;
8058;SDS011;4072;42.668;23.396;2022-10-31T02:41:00;4.17;;;2.80;;
8058;SDS011;4072;42.668;23.396;2022-10-31T02:43:33;4.17;;;2.90;;
8058;SDS011;4072;42.668;23.396;2022-10-31T02:46:07;5.47;;;2.13;;
8058;SDS011;4072;42.668;23.396;2022-10-31T02:48:41;7.47;;;5.17;;
8058;SDS011;4072;42.668;23.396;2022-10-31T02:51:12;7.53;;;4.57;;
8058;SDS011;4072;42.668;23.396;2022-10-31T02:53:41;9.00;;;4.70;;
8058;SDS011;4072;42.668;23.396;2022-10-31T02:56:11;6.33;;;4.50;;
8058;SDS011;4072;42.668;23.396;2022-10-31T02:58:41;6.93;;;4.47;;
8058;SDS011;4072;42.668;23.396;2022-10-31T03:01:21;7.13;;;4.23;;
8058;SDS011;4072;42.668;23.396;2022-10-31T03:06:57;10.30;;;6.60;;
8058;SDS011;4072;42.668;23.396;2022-10-31T03:09:32;11.53;;;6.60;;
8058;SDS011;4072;42.668;23.396;2022-10-31T03:12:07;7.90;;;6.60;;
8058;SDS011;4072;42.668;23.396;2022-10-31T03:14:39;8.73;;;6.73;;
8058;SDS011;4072;42.668;23.396;2022-10-31T03:17:12;8.33;;;6.33;;
8058;SDS011;4072;42.668;23.396;2022-10-31T03:19:45;10.77;;;7.83;;
8058;SDS011;4072;42.668;23.396;2022-10-31T03:22:16;11.33;;;6.87;;
8058;SDS011;4072;42.668;23.396;2022-10-31T03:24:48;11.53;;;7.10;;
8058;SDS011;4072;42.668;23.396;2022-10-31T03:27:18;7.77;;;6.47;;
8058;SDS011;4072;42.668;23.396;2022-10-31T03:29:50;9.10;;;6.07;;
8058;SDS011;4072;42.668;23.396;2022-10-31T03:32:21;8.97;;;7.87;;
8058;SDS011;4072;42.668;23.396;2022-10-31T03:34:55;7.50;;;6.10;;
8058;SDS011;4072;42.668;23.396;2022-10-31T03:37:27;10.07;;;6.80;;
8058;SDS011;4072;42.668;23.396;2022-10-31T03:39:57;11.10;;;7.47;;
8058;SDS011;4072;42.668;23.396;2022-10-31T03:42:29;10.57;;;7.57;;
8058;SDS011;4072;42.668;23.396;2022-10-31T03:45:00;8.57;;;6.43;;
8058;SDS011;4072;42.668;23.396;2022-10-31T03:47:32;9.50;;;5.93;;
8058;SDS011;4072;42.668;23.396;2022-10-31T03:50:05;10.80;;;6.90;;
8058;SDS011;4072;42.668;23.396;2022-10-31T03:52:36;11.33;;;6.27;;
8058;SDS011;4072;42.668;23.396;2022-10-31T03:55:09;7.83;;;5.87;;
8058;SDS011;4072;42.668;23.396;2022-10-31T03:57:48;9.13;;;6.20;;
8058;SDS011;4072;42.668;23.396;2022-10-31T04:00:21;8.40;;;6.80;;
8058;SDS011;4072;42.668;23.396;2022-10-31T04:02:51;7.67;;;6.13;;
8058;SDS011;4072;42.668;23.396;2022-10-31T04:05:28;9.07;;;6.77;;
8058;SDS011;4072;42.668;23.396;2022-10-31T04:08:00;11.77;;;7.03;;
8058;SDS011;4072;42.668;23.396;2022-10-31T04:10:32;12.17;;;7.40;;
8058;SDS011;4072;42.668;23.396;2022-10-31T04:13:03;10.30;;;7.33;;
8058;SDS011;4072;42.668;23.396;2022-10-31T04:15:35;8.57;;;7.03;;
8058;SDS011;4072;42.668;23.396;2022-10-31T04:18:06;9.97;;;6.80;;
8058;SDS011;4072;42.668;23.396;2022-10-31T04:20:38;11.13;;;7.63;;
8058;SDS011;4072;42.668;23.396;2022-10-31T04:23:10;10.83;;;8.53;;
8058;SDS011;4072;42.668;23.396;2022-10-31T04:25:45;10.83;;;7.70;;
8058;SDS011;4072;42.668;23.396;2022-10-31T04:28:14;11.13;;;7.63;;
8058;SDS011;4072;42.668;23.396;2022-10-31T04:30:42;11.53;;;7.43;;
8058;SDS011;4072;42.668;23.396;2022-10-31T04:33:10;11.00;;;6.87;;
8058;SDS011;4072;42.668;23.396;2022-10-31T04:35:40;12.93;;;7.23;;
8058;SDS011;4072;42.668;23.396;2022-10-31T04:38:09;9.07;;;6.73;;
8058;SDS011;4072;42.668;23.396;2022-10-31T04:40:37;10.70;;;7.57;;
8058;SDS011;4072;42.668;23.396;2022-10-31T04:43:05;11.73;;;7.13;;
8058;SDS011;4072;42.668;23.396;2022-10-31T04:45:35;9.33;;;7.77;;
8058;SDS011;4072;42.668;23.396;2022-10-31T04:48:04;9.70;;;6.97;;
8058;SDS011;4072;42.668;23.396;2022-10-31T04:50:33;9.97;;;7.90;;
8058;SDS011;4072;42.668;23.396;2022-10-31T04:53:03;12.93;;;7.73;;
8058;SDS011;4072;42.668;23.396;2022-10-31T04:55:31;12.77;;;9.17;;
8058;SDS011;4072;42.668;23.396;2022-10-31T04:58:00;12.50;;;9.30;;
8058;SDS011;4072;42.668;23.396;2022-10-31T05:00:29;12.83;;;9.37;;
8058;SDS011;4072;42.668;23.396;2022-10-31T05:02:57;9.10;;;7.90;;
8058;SDS011;4072;42.668;23.396;2022-10-31T05:05:27;9.27;;;8.30;;
8058;SDS011;4072;42.668;23.396;2022-10-31T05:07:57;16.57;;;9.07;;
8058;SDS011;4072;42.668;23.396;2022-10-31T05:10:28;14.57;;;8.50;;
8058;SDS011;4072;42.668;23.396;2022-10-31T05:12:58;11.80;;;7.80;;
8058;SDS011;4072;42.668;23.396;2022-10-31T05:15:28;12.70;;;9.50;;
8058;SDS011;4072;42.668;23.396;2022-10-31T05:17:58;14.43;;;9.10;;
8058;SDS011;4072;42.668;23.396;2022-10-31T05:20:28;13.07;;;9.23;;
8058;SDS011;4072;42.668;23.396;2022-10-31T05:22:59;17.73;;;9.97;;
8058;SDS011;4072;42.668;23.396;2022-10-31T05:25:29;21.50;;;9.80;;
8058;SDS011;4072;42.668;23.396;2022-10-31T05:27:57;14.23;;;10.27;;
8058;SDS011;4072;42.668;23.396;2022-10-31T05:30:26;17.90;;;10.27;;
8058;SDS011;4072;42.668;23.396;2022-10-31T05:32:56;18.77;;;10.40;;
8058;SDS011;4072;42.668;23.396;2022-10-31T05:35:25;13.03;;;10.03;;
8058;SDS011;4072;42.668;23.396;2022-10-31T05:37:55;15.90;;;10.60;;
8058;SDS011;4072;42.668;23.396;2022-10-31T05:40:24;18.60;;;11.60;;
8058;SDS011;4072;42.668;23.396;2022-10-31T05:42:57;18.73;;;11.47;;
8058;SDS011;4072;42.668;23.396;2022-10-31T05:45:28;17.07;;;11.80;;
8058;SDS011;4072;42.668;23.396;2022-10-31T05:47:56;15.97;;;11.50;;
8058;SDS011;4072;42.668;23.396;2022-10-31T05:50:30;18.43;;;11.73;;
8058;SDS011;4072;42.668;23.396;2022-10-31T05:52:59;16.93;;;11.90;;
8058;SDS011;4072;42.668;23.396;2022-10-31T05:55:29;20.03;;;13.00;;
8058;SDS011;4072;42.668;23.396;2022-10-31T05:58:00;22.87;;;13.57;;
8058;SDS011;4072;42.668;23.396;2022-10-31T06:00:29;24.83;;;14.30;;
8058;SDS011;4072;42.668;23.396;2022-10-31T06:02:57;24.47;;;13.70;;
8058;SDS011;4072;42.668;23.396;2022-10-31T06:05:26;33.87;;;14.93;;
8058;SDS011;4072;42.668;23.396;2022-10-31T06:07:55;29.50;;;15.30;;
8058;SDS011;4072;42.668;23.396;2022-10-31T06:10:25;28.93;;;14.60;;
8058;SDS011;4072;42.668;23.396;2022-10-31T06:12:54;29.53;;;15.60;;
8058;SDS011;4072;42.668;23.396;2022-10-31T06:15:24;26.67;;;14.90;;
8058;SDS011;4072;42.668;23.396;2022-10-31T06:18:00;36.60;;;16.67;;
8058;SDS011;4072;42.668;23.396;2022-10-31T06:20:30;25.60;;;15.10;;
8058;SDS011;4072;42.668;23.396;2022-10-31T06:22:58;32.13;;;15.30;;
8058;SDS011;4072;42.668;23.396;2022-10-31T06:25:27;23.10;;;14.40;;
8058;SDS011;4072;42.668;23.396;2022-10-31T06:27:56;29.27;;;17.97;;
8058;SDS011;4072;42.668;23.396;2022-10-31T06:30:27;32.20;;;19.03;;
8058;SDS011;4072;42.668;23.396;2022-10-31T06:33:00;31.90;;;19.23;;
8058;SDS011;4072;42.668;23.396;2022-10-31T06:35:30;32.10;;;17.57;;
8058;SDS011;4072;42.668;23.396;2022-10-31T06:38:00;49.03;;;26.30;;
8058;SDS011;4072;42.668;23.396;2022-10-31T06:40:28;36.00;;;23.03;;
8058;SDS011;4072;42.668;23.396;2022-10-31T06:42:57;22.93;;;14.67;;
8058;SDS011;4072;42.668;23.396;2022-10-31T06:45:30;25.63;;;15.40;;
8058;SDS011;4072;42.668;23.396;2022-10-31T06:47:59;29.47;;;18.17;;
8058;SDS011;4072;42.668;23.396;2022-10-31T06:50:44;20.37;;;13.60;;
8058;SDS011;4072;42.668;23.396;2022-10-31T06:53:13;23.13;;;14.63;;
8058;SDS011;4072;42.668;23.396;2022-10-31T06:55:42;22.77;;;13.53;;
8058;SDS011;4072;42.668;23.396;2022-10-31T06:58:10;18.03;;;12.10;;
8058;SDS011;4072;42.668;23.396;2022-10-31T07:00:43;20.03;;;11.93;;
8058;SDS011;4072;42.668;23.396;2022-10-31T07:03:12;19.73;;;12.57;;
8058;SDS011;4072;42.668;23.396;2022-10-31T07:05:42;23.60;;;14.83;;
8058;SDS011;4072;42.668;23.396;2022-10-31T07:08:12;25.80;;;16.10;;
8058;SDS011;4072;42.668;23.396;2022-10-31T07:10:42;21.10;;;14.60;;
8058;SDS011;4072;42.668;23.396;2022-10-31T07:13:18;32.17;;;14.83;;
8058;SDS011;4072;42.668;23.396;2022-10-31T07:15:49;19.63;;;12.40;;
8058;SDS011;4072;42.668;23.396;2022-10-31T07:18:18;16.10;;;11.90;;
8058;SDS011;4072;42.668;23.396;2022-10-31T07:20:46;14.97;;;12.30;;
8058;SDS011;4072;42.668;23.396;2022-10-31T07:23:16;12.90;;;10.57;;
8058;SDS011;4072;42.668;23.396;2022-10-31T07:25:44;17.30;;;11.23;;
8058;SDS011;4072;42.668;23.396;2022-10-31T07:28:12;17.53;;;11.10;;
8058;SDS011;4072;42.668;23.396;2022-10-31T07:30:41;16.73;;;10.80;;
8058;SDS011;4072;42.668;23.396;2022-10-31T07:34:34;14.33;;;11.63;;
8058;SDS011;4072;42.668;23.396;2022-10-31T07:37:12;13.73;;;10.17;;
8058;SDS011;4072;42.668;23.396;2022-10-31T07:39:41;14.73;;;12.17;;
8058;SDS011;4072;42.668;23.396;2022-10-31T07:42:09;17.07;;;11.10;;
8058;SDS011;4072;42.668;23.396;2022-10-31T07:44:37;15.37;;;12.67;;
8058;SDS011;4072;42.668;23.396;2022-10-31T07:47:05;14.90;;;12.13;;
8058;SDS011;4072;42.668;23.396;2022-10-31T07:49:36;14.70;;;11.43;;
8058;SDS011;4072;42.668;23.396;2022-10-31T07:52:04;14.67;;;10.47;;
8058;SDS011;4072;42.668;23.396;2022-10-31T07:54:33;13.87;;;11.03;;
8058;SDS011;4072;42.668;23.396;2022-10-31T07:57:01;14.57;;;9.97;;
8058;SDS011;4072;42.668;23.396;2022-10-31T07:59:29;16.77;;;10.63;;
8058;SDS011;4072;42.668;23.396;2022-10-31T08:03:08;14.77;;;11.80;;
8058;SDS011;4072;42.668;23.396;2022-10-31T08:05:39;17.17;;;12.40;;
8058;SDS011;4072;42.668;23.396;2022-10-31T08:08:08;17.07;;;12.20;;
8058;SDS011;4072;42.668;23.396;2022-10-31T08:10:37;15.90;;;12.20;;
8058;SDS011;4072;42.668;23.396;2022-10-31T08:13:08;18.30;;;12.07;;
8058;SDS011;4072;42.668;23.396;2022-10-31T08:15:37;14.40;;;11.17;;
8058;SDS011;4072;42.668;23.396;2022-10-31T08:18:11;16.93;;;12.33;;
8058;SDS011;4072;42.668;23.396;2022-10-31T08:20:41;15.00;;;10.57;;
8058;SDS011;4072;42.668;23.396;2022-10-31T08:23:11;16.27;;;13.03;;
8058;SDS011;4072;42.668;23.396;2022-10-31T08:25:41;12.57;;;11.13;;
8058;SDS011;4072;42.668;23.396;2022-10-31T08:28:10;16.67;;;12.00;;
8058;SDS011;4072;42.668;23.396;2022-10-31T08:30:40;16.17;;;12.40;;
8058;SDS011;4072;42.668;23.396;2022-10-31T08:33:11;14.30;;;12.83;;
8058;SDS011;4072;42.668;23.396;2022-10-31T08:35:42;20.37;;;12.57;;
8058;SDS011;4072;42.668;23.396;2022-10-31T08:38:11;19.90;;;13.73;;
8058;SDS011;4072;42.668;23.396;2022-10-31T08:40:40;19.17;;;12.53;;
8058;SDS011;4072;42.668;23.396;2022-10-31T08:43:11;17.60;;;13.17;;
8058;SDS011;4072;42.668;23.396;2022-10-31T08:45:40;14.83;;;13.03;;
8058;SDS011;4072;42.668;23.396;2022-10-31T08:48:11;17.13;;;13.33;;
8058;SDS011;4072;42.668;23.396;2022-10-31T08:50:40;22.43;;;13.60;;
8058;SDS011;4072;42.668;23.396;2022-10-31T08:53:09;21.20;;;14.50;;
8058;SDS011;4072;42.668;23.396;2022-10-31T08:55:40;19.43;;;14.20;;
8058;SDS011;4072;42.668;23.396;2022-10-31T08:58:10;19.50;;;13.87;;
8058;SDS011;4072;42.668;23.396;2022-10-31T09:00:40;15.43;;;13.63;;
8058;SDS011;4072;42.668;23.396;2022-10-31T09:03:09;17.57;;;12.53;;
8058;SDS011;4072;42.668;23.396;2022-10-31T09:05:40;15.33;;;13.73;;
8058;SDS011;4072;42.668;23.396;2022-10-31T09:08:09;18.07;;;13.00;;
8058;SDS011;4072;42.668;23.396;2022-10-31T09:10:42;18.13;;;13.37;;
8058;SDS011;4072;42.668;23.396;2022-10-31T09:13:11;17.60;;;12.87;;
8058;SDS011;4072;42.668;23.396;2022-10-31T09:15:41;25.10;;;15.30;;
8058;SDS011;4072;42.668;23.396;2022-10-31T09:18:14;14.43;;;12.53;;
8058;SDS011;4072;42.668;23.396;2022-10-31T09:20:45;13.43;;;12.03;;
8058;SDS011;4072;42.668;23.396;2022-10-31T09:23:15;16.93;;;11.60;;
8058;SDS011;4072;42.668;23.396;2022-10-31T09:25:45;18.07;;;11.87;;
8058;SDS011;4072;42.668;23.396;2022-10-31T09:28:17;16.07;;;11.83;;
8058;SDS011;4072;42.668;23.396;2022-10-31T09:30:47;13.77;;;11.03;;
8058;SDS011;4072;42.668;23.396;2022-10-31T09:33:17;19.37;;;12.27;;
8058;SDS011;4072;42.668;23.396;2022-10-31T09:35:48;16.00;;;11.57;;
8058;SDS011;4072;42.668;23.396;2022-10-31T09:38:16;13.67;;;11.57;;
8058;SDS011;4072;42.668;23.396;2022-10-31T09:40:47;17.17;;;12.57;;
8058;SDS011;4072;42.668;23.396;2022-10-31T09:43:21;16.17;;;11.50;;
8058;SDS011;4072;42.668;23.396;2022-10-31T09:46:00;17.93;;;10.50;;
8058;SDS011;4072;42.668;23.396;2022-10-31T09:48:40;13.27;;;10.53;;
8058;SDS011;4072;42.668;23.396;2022-10-31T09:51:23;12.77;;;11.33;;
8058;SDS011;4072;42.668;23.396;2022-10-31T09:53:57;12.33;;;10.17;;
8058;SDS011;4072;42.668;23.396;2022-10-31T09:56:31;12.90;;;11.10;;
8058;SDS011;4072;42.668;23.396;2022-10-31T09:59:02;13.20;;;11.20;;
8058;SDS011;4072;42.668;23.396;2022-10-31T10:01:34;14.17;;;10.57;;
8058;SDS011;4072;42.668;23.396;2022-10-31T10:07:10;16.67;;;11.43;;
8058;SDS011;4072;42.668;23.396;2022-10-31T10:09:44;14.13;;;10.00;;
8058;SDS011;4072;42.668;23.396;2022-10-31T10:12:15;13.73;;;10.27;;
8058;SDS011;4072;42.668;23.396;2022-10-31T10:14:53;14.30;;;10.60;;
8058;SDS011;4072;42.668;23.396;2022-10-31T10:17:44;20.37;;;10.27;;
8058;SDS011;4072;42.668;23.396;2022-10-31T10:20:23;21.63;;;15.97;;
8058;SDS011;4072;42.668;23.396;2022-10-31T10:23:06;16.57;;;10.53;;
8058;SDS011;4072;42.668;23.396;2022-10-31T10:25:49;13.30;;;8.87;;
8058;SDS011;4072;42.668;23.396;2022-10-31T10:28:26;9.70;;;7.63;;
8058;SDS011;4072;42.668;23.396;2022-10-31T10:31:05;13.47;;;7.90;;
8058;SDS011;4072;42.668;23.396;2022-10-31T10:33:39;13.00;;;8.87;;
8058;SDS011;4072;42.668;23.396;2022-10-31T10:36:12;16.80;;;9.63;;
8058;SDS011;4072;42.668;23.396;2022-10-31T10:38:47;9.90;;;7.07;;
8058;SDS011;4072;42.668;23.396;2022-10-31T10:41:19;9.63;;;6.97;;
8058;SDS011;4072;42.668;23.396;2022-10-31T10:43:48;12.17;;;7.40;;
8058;SDS011;4072;42.668;23.396;2022-10-31T10:46:18;9.67;;;5.73;;
8058;SDS011;4072;42.668;23.396;2022-10-31T10:49:13;9.10;;;6.30;;
8058;SDS011;4072;42.668;23.396;2022-10-31T10:51:45;8.67;;;5.13;;
8058;SDS011;4072;42.668;23.396;2022-10-31T10:57:32;9.83;;;6.43;;
8058;SDS011;4072;42.668;23.396;2022-10-31T11:00:17;7.30;;;5.40;;
8058;SDS011;4072;42.668;23.396;2022-10-31T11:02:47;10.23;;;5.93;;
8058;SDS011;4072;42.668;23.396;2022-10-31T11:08:03;9.18;;;6.05;;
8058;SDS011;4072;42.668;23.396;2022-10-31T11:10:34;7.45;;;4.38;;
8058;SDS011;4072;42.668;23.396;2022-10-31T11:13:05;4.60;;;2.83;;
8058;SDS011;4072;42.668;23.396;2022-10-31T11:15:49;6.53;;;3.80;;
8058;SDS011;4072;42.668;23.396;2022-10-31T11:18:21;6.57;;;4.47;;
8058;SDS011;4072;42.668;23.396;2022-10-31T11:20:53;5.17;;;3.70;;
8058;SDS011;4072;42.668;23.396;2022-10-31T11:23:23;6.22;;;3.97;;
8058;SDS011;4072;42.668;23.396;2022-10-31T11:25:55;5.27;;;4.53;;
8058;SDS011;4072;42.668;23.396;2022-10-31T11:28:26;11.33;;;4.10;;
8058;SDS011;4072;42.668;23.396;2022-10-31T11:30:59;10.17;;;4.57;;
8058;SDS011;4072;42.668;23.396;2022-10-31T11:33:33;7.40;;;3.97;;
8058;SDS011;4072;42.668;23.396;2022-10-31T11:36:04;6.70;;;3.53;;
8058;SDS011;4072;42.668;23.396;2022-10-31T11:38:43;9.63;;;4.57;;
8058;SDS011;4072;42.668;23.396;2022-10-31T11:41:14;7.53;;;3.40;;
8058;SDS011;4072;42.668;23.396;2022-10-31T11:43:46;5.03;;;3.07;;
8058;SDS011;4072;42.668;23.396;2022-10-31T11:46:19;6.28;;;4.45;;
8058;SDS011;4072;42.668;23.396;2022-10-31T11:48:54;8.87;;;4.50;;
8058;SDS011;4072;42.668;23.396;2022-10-31T11:51:25;9.63;;;5.03;;
8058;SDS011;4072;42.668;23.396;2022-10-31T11:53:57;6.35;;;3.60;;
8058;SDS011;4072;42.668;23.396;2022-10-31T11:56:41;8.18;;;3.47;;
8058;SDS011;4072;42.668;23.396;2022-10-31T11:59:15;8.63;;;3.47;;
8058;SDS011;4072;42.668;23.396;2022-10-31T12:01:50;5.60;;;3.70;;
8058;SDS011;4072;42.668;23.396;2022-10-31T12:04:24;10.23;;;4.57;;
8058;SDS011;4072;42.668;23.396;2022-10-31T12:07:00;6.18;;;3.13;;
8058;SDS011;4072;42.668;23.396;2022-10-31T12:09:29;5.13;;;3.47;;
8058;SDS011;4072;42.668;23.396;2022-10-31T12:12:24;5.85;;;3.90;;
8058;SDS011;4072;42.668;23.396;2022-10-31T12:15:26;7.05;;;3.05;;
8058;SDS011;4072;42.668;23.396;2022-10-31T12:18:05;8.38;;;4.28;;
8058;SDS011;4072;42.668;23.396;2022-10-31T12:21:06;5.65;;;3.53;;
8058;SDS011;4072;42.668;23.396;2022-10-31T12:23:47;6.10;;;3.60;;
8058;SDS011;4072;42.668;23.396;2022-10-31T12:26:22;8.90;;;3.85;;
8058;SDS011;4072;42.668;23.396;2022-10-31T12:29:07;7.70;;;3.50;;
8058;SDS011;4072;42.668;23.396;2022-10-31T12:31:52;6.85;;;3.10;;
8058;SDS011;4072;42.668;23.396;2022-10-31T12:34:40;4.03;;;3.00;;
8058;SDS011;4072;42.668;23.396;2022-10-31T12:37:25;9.40;;;4.00;;
8058;SDS011;4072;42.668;23.396;2022-10-31T12:40:10;10.80;;;3.88;;
8058;SDS011;4072;42.668;23.396;2022-10-31T12:42:57;7.80;;;3.38;;
8058;SDS011;4072;42.668;23.396;2022-10-31T12:45:49;6.70;;;3.35;;
8058;SDS011;4072;42.668;23.396;2022-10-31T12:51:31;10.43;;;3.55;;
8058;SDS011;4072;42.668;23.396;2022-10-31T12:54:12;8.18;;;3.63;;
8058;SDS011;4072;42.668;23.396;2022-10-31T12:56:53;5.40;;;3.05;;
8058;SDS011;4072;42.668;23.396;2022-10-31T12:59:29;8.25;;;3.40;;
8058;SDS011;4072;42.668;23.396;2022-10-31T13:02:06;7.60;;;3.75;;
8058;SDS011;4072;42.668;23.396;2022-10-31T13:04:43;4.55;;;3.17;;
8058;SDS011;4072;42.668;23.396;2022-10-31T13:07:19;5.63;;;4.05;;
8058;SDS011;4072;42.668;23.396;2022-10-31T13:09:58;10.13;;;4.70;;
8058;SDS011;4072;42.668;23.396;2022-10-31T13:12:33;6.90;;;4.20;;
8058;SDS011;4072;42.668;23.396;2022-10-31T13:15:04;7.20;;;3.80;;
8058;SDS011;4072;42.668;23.396;2022-10-31T13:17:43;3.95;;;3.45;;
8058;SDS011;4072;42.668;23.396;2022-10-31T13:20:17;8.20;;;3.92;;
8058;SDS011;4072;42.668;23.396;2022-10-31T13:22:51;7.85;;;3.53;;
8058;SDS011;4072;42.668;23.396;2022-10-31T13:25:23;6.50;;;3.65;;
8058;SDS011;4072;42.668;23.396;2022-10-31T13:27:56;8.75;;;3.75;;
8058;SDS011;4072;42.668;23.396;2022-10-31T13:30:28;11.30;;;3.97;;
8058;SDS011;4072;42.668;23.396;2022-10-31T13:33:01;6.78;;;3.58;;
8058;SDS011;4072;42.668;23.396;2022-10-31T13:35:36;7.32;;;3.90;;
8058;SDS011;4072;42.668;23.396;2022-10-31T13:38:14;10.45;;;3.85;;
8058;SDS011;4072;42.668;23.396;2022-10-31T13:40:51;9.02;;;3.63;;
8058;SDS011;4072;42.668;23.396;2022-10-31T13:43:27;6.43;;;3.40;;
8058;SDS011;4072;42.668;23.396;2022-10-31T13:46:02;5.85;;;3.30;;
8058;SDS011;4072;42.668;23.396;2022-10-31T13:48:37;6.13;;;3.33;;
8058;SDS011;4072;42.668;23.396;2022-10-31T13:51:10;9.73;;;3.83;;
8058;SDS011;4072;42.668;23.396;2022-10-31T13:53:43;5.87;;;3.53;;
8058;SDS011;4072;42.668;23.396;2022-10-31T13:56:16;6.90;;;3.05;;
8058;SDS011;4072;42.668;23.396;2022-10-31T13:58:56;13.02;;;3.65;;
8058;SDS011;4072;42.668;23.396;2022-10-31T14:01:45;6.55;;;3.33;;
8058;SDS011;4072;42.668;23.396;2022-10-31T14:04:19;10.18;;;3.33;;
8058;SDS011;4072;42.668;23.396;2022-10-31T14:06:53;6.05;;;3.17;;
8058;SDS011;4072;42.668;23.396;2022-10-31T14:09:31;7.70;;;3.28;;
8058;SDS011;4072;42.668;23.396;2022-10-31T14:12:05;5.53;;;3.50;;
8058;SDS011;4072;42.668;23.396;2022-10-31T14:14:42;8.43;;;3.28;;
8058;SDS011;4072;42.668;23.396;2022-10-31T14:17:18;8.43;;;3.70;;
8058;SDS011;4072;42.668;23.396;2022-10-31T14:19:58;6.68;;;3.50;;
8058;SDS011;4072;42.668;23.396;2022-10-31T14:22:30;9.32;;;3.75;;
8058;SDS011;4072;42.668;23.396;2022-10-31T14:27:59;8.63;;;3.40;;
8058;SDS011;4072;42.668;23.396;2022-10-31T14:30:30;5.78;;;3.58;;
8058;SDS011;4072;42.668;23.396;2022-10-31T14:32:58;5.03;;;3.38;;
8058;SDS011;4072;42.668;23.396;2022-10-31T14:35:37;6.13;;;3.73;;
8058;SDS011;4072;42.668;23.396;2022-10-31T14:38:26;6.53;;;3.80;;
8058;SDS011;4072;42.668;23.396;2022-10-31T14:41:17;6.25;;;3.50;;
8058;SDS011;4072;42.668;23.396;2022-10-31T14:47:01;6.67;;;4.17;;
8058;SDS011;4072;42.668;23.396;2022-10-31T14:49:48;8.63;;;3.27;;
8058;SDS011;4072;42.668;23.396;2022-10-31T14:52:30;8.53;;;3.30;;
8058;SDS011;4072;42.668;23.396;2022-10-31T14:55:00;13.83;;;4.63;;
8058;SDS011;4072;42.668;23.396;2022-10-31T14:57:29;8.98;;;4.80;;
8058;SDS011;4072;42.668;23.396;2022-10-31T15:00:03;6.50;;;3.37;;
8058;SDS011;4072;42.668;23.396;2022-10-31T15:02:34;14.03;;;3.10;;
8058;SDS011;4072;42.668;23.396;2022-10-31T15:05:08;9.43;;;3.50;;
8058;SDS011;4072;42.668;23.396;2022-10-31T15:07:50;6.77;;;3.60;;
8058;SDS011;4072;42.668;23.396;2022-10-31T15:10:20;6.87;;;2.57;;
8058;SDS011;4072;42.668;23.396;2022-10-31T15:12:50;10.27;;;3.63;;
8058;SDS011;4072;42.668;23.396;2022-10-31T15:15:20;8.63;;;2.57;;
8058;SDS011;4072;42.668;23.396;2022-10-31T15:17:52;10.93;;;3.57;;
8058;SDS011;4072;42.668;23.396;2022-10-31T15:20:22;17.27;;;3.60;;
8058;SDS011;4072;42.668;23.396;2022-10-31T15:22:55;12.53;;;3.10;;
8058;SDS011;4072;42.668;23.396;2022-10-31T15:25:25;16.27;;;3.57;;
8058;SDS011;4072;42.668;23.396;2022-10-31T15:27:55;10.27;;;3.00;;
8058;SDS011;4072;42.668;23.396;2022-10-31T15:30:25;14.10;;;3.60;;
8058;SDS011;4072;42.668;23.396;2022-10-31T15:32:54;15.23;;;4.33;;
8058;SDS011;4072;42.668;23.396;2022-10-31T15:35:26;13.07;;;3.87;;
8058;SDS011;4072;42.668;23.396;2022-10-31T15:37:58;15.23;;;4.20;;
8058;SDS011;4072;42.668;23.396;2022-10-31T15:40:28;6.10;;;2.90;;
8058;SDS011;4072;42.668;23.396;2022-10-31T15:42:57;9.07;;;3.70;;
8058;SDS011;4072;42.668;23.396;2022-10-31T15:45:29;15.63;;;3.80;;
8058;SDS011;4072;42.668;23.396;2022-10-31T15:47:59;8.10;;;3.43;;
8058;SDS011;4072;42.668;23.396;2022-10-31T15:50:31;11.47;;;4.00;;